sensor_id;sensor_type;location;lat;lon;timestamp;P1;durP1;ratioP1;P2;durP2;ratioP2
65387;SDS011;51992;53.528;49.474;2022-10-16T00:00:00;6.30;;;3.00;;
65387;SDS011;51992;53.528;49.474;2022-10-16T00:02:31;9.73;;;3.45;;
65387;SDS011;51992;53.528;49.474;2022-10-16T00:05:02;8.95;;;3.67;;
65387;SDS011;51992;53.528;49.474;2022-10-16T00:07:33;7.38;;;2.90;;
65387;SDS011;51992;53.528;49.474;2022-10-16T00:10:05;4.20;;;3.17;;
65387;SDS011;51992;53.528;49.474;2022-10-16T00:12:36;3.78;;;2.88;;
65387;SDS011;51992;53.528;49.474;2022-10-16T00:15:07;4.65;;;2.70;;
65387;SDS011;51992;53.528;49.474;2022-10-16T00:17:38;3.40;;;2.72;;
65387;SDS011;51992;53.528;49.474;2022-10-16T00:20:09;3.83;;;2.58;;
65387;SDS011;51992;53.528;49.474;2022-10-16T00:22:40;5.43;;;2.25;;
65387;SDS011;51992;53.528;49.474;2022-10-16T00:25:11;6.38;;;3.13;;
65387;SDS011;51992;53.528;49.474;2022-10-16T00:27:42;4.68;;;3.25;;
65387;SDS011;51992;53.528;49.474;2022-10-16T00:30:16;6.85;;;3.05;;
65387;SDS011;51992;53.528;49.474;2022-10-16T00:32:47;5.85;;;3.05;;
65387;SDS011;51992;53.528;49.474;2022-10-16T00:35:18;5.43;;;3.22;;
65387;SDS011;51992;53.528;49.474;2022-10-16T00:37:49;6.13;;;3.08;;
65387;SDS011;51992;53.528;49.474;2022-10-16T00:40:20;5.75;;;3.30;;
65387;SDS011;51992;53.528;49.474;2022-10-16T00:42:51;7.57;;;3.40;;
65387;SDS011;51992;53.528;49.474;2022-10-16T00:45:22;9.02;;;3.30;;
65387;SDS011;51992;53.528;49.474;2022-10-16T00:47:54;6.90;;;4.07;;
65387;SDS011;51992;53.528;49.474;2022-10-16T00:50:27;7.72;;;4.07;;
65387;SDS011;51992;53.528;49.474;2022-10-16T00:52:59;7.80;;;3.92;;
65387;SDS011;51992;53.528;49.474;2022-10-16T00:55:31;8.32;;;3.80;;
65387;SDS011;51992;53.528;49.474;2022-10-16T00:58:02;10.48;;;3.70;;
65387;SDS011;51992;53.528;49.474;2022-10-16T01:00:33;12.45;;;4.07;;
65387;SDS011;51992;53.528;49.474;2022-10-16T01:03:21;12.05;;;4.07;;
65387;SDS011;51992;53.528;49.474;2022-10-16T01:06:03;16.83;;;5.13;;
65387;SDS011;51992;53.528;49.474;2022-10-16T01:08:48;21.83;;;4.28;;
65387;SDS011;51992;53.528;49.474;2022-10-16T01:11:23;12.32;;;4.10;;
65387;SDS011;51992;53.528;49.474;2022-10-16T01:13:58;13.40;;;4.45;;
65387;SDS011;51992;53.528;49.474;2022-10-16T01:19:09;7.55;;;3.75;;
65387;SDS011;51992;53.528;49.474;2022-10-16T01:21:43;15.27;;;4.43;;
65387;SDS011;51992;53.528;49.474;2022-10-16T01:29:49;10.73;;;4.00;;
65387;SDS011;51992;53.528;49.474;2022-10-16T01:32:19;15.32;;;4.50;;
65387;SDS011;51992;53.528;49.474;2022-10-16T01:34:52;12.32;;;4.38;;
65387;SDS011;51992;53.528;49.474;2022-10-16T01:40:19;12.57;;;4.05;;
65387;SDS011;51992;53.528;49.474;2022-10-16T01:42:59;12.27;;;4.63;;
65387;SDS011;51992;53.528;49.474;2022-10-16T01:45:31;13.52;;;4.85;;
65387;SDS011;51992;53.528;49.474;2022-10-16T01:48:02;11.65;;;4.53;;
65387;SDS011;51992;53.528;49.474;2022-10-16T01:50:38;13.45;;;4.85;;
65387;SDS011;51992;53.528;49.474;2022-10-16T01:53:11;11.52;;;4.80;;
65387;SDS011;51992;53.528;49.474;2022-10-16T01:55:44;10.40;;;4.93;;
65387;SDS011;51992;53.528;49.474;2022-10-16T01:58:16;36.28;;;11.80;;
65387;SDS011;51992;53.528;49.474;2022-10-16T02:00:47;34.95;;;13.38;;
65387;SDS011;51992;53.528;49.474;2022-10-16T02:03:19;50.42;;;18.77;;
65387;SDS011;51992;53.528;49.474;2022-10-16T02:08:22;68.32;;;22.15;;
65387;SDS011;51992;53.528;49.474;2022-10-16T02:10:54;53.83;;;19.50;;
65387;SDS011;51992;53.528;49.474;2022-10-16T02:13:28;49.65;;;17.30;;
65387;SDS011;51992;53.528;49.474;2022-10-16T02:16:00;59.45;;;19.55;;
65387;SDS011;51992;53.528;49.474;2022-10-16T02:18:32;63.25;;;20.55;;
65387;SDS011;51992;53.528;49.474;2022-10-16T02:26:43;59.65;;;19.35;;
65387;SDS011;51992;53.528;49.474;2022-10-16T02:29:16;54.35;;;18.35;;
65387;SDS011;51992;53.528;49.474;2022-10-16T02:31:49;46.92;;;17.67;;
65387;SDS011;51992;53.528;49.474;2022-10-16T02:34:21;45.80;;;18.80;;
65387;SDS011;51992;53.528;49.474;2022-10-16T02:36:55;46.35;;;15.88;;
65387;SDS011;51992;53.528;49.474;2022-10-16T02:39:27;33.90;;;14.25;;
65387;SDS011;51992;53.528;49.474;2022-10-16T02:41:59;40.78;;;15.25;;
65387;SDS011;51992;53.528;49.474;2022-10-16T02:44:30;37.60;;;14.27;;
65387;SDS011;51992;53.528;49.474;2022-10-16T02:47:01;32.65;;;13.68;;
65387;SDS011;51992;53.528;49.474;2022-10-16T02:49:32;36.40;;;14.38;;
65387;SDS011;51992;53.528;49.474;2022-10-16T02:52:03;34.42;;;12.30;;
65387;SDS011;51992;53.528;49.474;2022-10-16T02:54:34;34.30;;;11.82;;
65387;SDS011;51992;53.528;49.474;2022-10-16T02:57:05;40.42;;;14.10;;
65387;SDS011;51992;53.528;49.474;2022-10-16T02:59:36;30.77;;;13.23;;
65387;SDS011;51992;53.528;49.474;2022-10-16T03:02:07;37.20;;;14.25;;
65387;SDS011;51992;53.528;49.474;2022-10-16T03:04:38;38.88;;;14.18;;
65387;SDS011;51992;53.528;49.474;2022-10-16T03:07:09;36.40;;;13.98;;
65387;SDS011;51992;53.528;49.474;2022-10-16T03:09:40;38.28;;;14.35;;
65387;SDS011;51992;53.528;49.474;2022-10-16T03:12:12;46.10;;;16.27;;
65387;SDS011;51992;53.528;49.474;2022-10-16T03:14:43;46.63;;;15.57;;
65387;SDS011;51992;53.528;49.474;2022-10-16T03:17:14;47.95;;;16.50;;
65387;SDS011;51992;53.528;49.474;2022-10-16T03:19:47;52.28;;;17.38;;
65387;SDS011;51992;53.528;49.474;2022-10-16T03:22:18;52.47;;;19.08;;
65387;SDS011;51992;53.528;49.474;2022-10-16T03:24:49;56.50;;;19.80;;
65387;SDS011;51992;53.528;49.474;2022-10-16T03:27:20;53.53;;;18.67;;
65387;SDS011;51992;53.528;49.474;2022-10-16T03:29:51;49.65;;;19.83;;
65387;SDS011;51992;53.528;49.474;2022-10-16T03:32:22;51.47;;;19.77;;
65387;SDS011;51992;53.528;49.474;2022-10-16T03:34:55;52.53;;;19.27;;
65387;SDS011;51992;53.528;49.474;2022-10-16T03:37:27;58.42;;;18.85;;
65387;SDS011;51992;53.528;49.474;2022-10-16T03:39:58;41.63;;;16.90;;
65387;SDS011;51992;53.528;49.474;2022-10-16T03:42:30;49.28;;;17.27;;
65387;SDS011;51992;53.528;49.474;2022-10-16T03:45:00;50.47;;;16.38;;
65387;SDS011;51992;53.528;49.474;2022-10-16T03:47:32;36.03;;;15.15;;
65387;SDS011;51992;53.528;49.474;2022-10-16T03:50:04;45.08;;;15.90;;
65387;SDS011;51992;53.528;49.474;2022-10-16T03:52:35;54.28;;;15.30;;
65387;SDS011;51992;53.528;49.474;2022-10-16T03:55:06;51.35;;;13.60;;
65387;SDS011;51992;53.528;49.474;2022-10-16T04:00:09;47.47;;;13.32;;
65387;SDS011;51992;53.528;49.474;2022-10-16T04:02:40;34.90;;;11.75;;
65387;SDS011;51992;53.528;49.474;2022-10-16T04:05:11;38.75;;;10.57;;
65387;SDS011;51992;53.528;49.474;2022-10-16T04:07:42;32.53;;;10.85;;
65387;SDS011;51992;53.528;49.474;2022-10-16T04:10:13;26.45;;;10.38;;
65387;SDS011;51992;53.528;49.474;2022-10-16T04:12:44;28.83;;;9.85;;
65387;SDS011;51992;53.528;49.474;2022-10-16T04:15:15;25.30;;;9.95;;
65387;SDS011;51992;53.528;49.474;2022-10-16T04:17:46;27.92;;;9.88;;
65387;SDS011;51992;53.528;49.474;2022-10-16T04:20:17;43.15;;;13.20;;
65387;SDS011;51992;53.528;49.474;2022-10-16T04:22:48;52.92;;;18.08;;
65387;SDS011;51992;53.528;49.474;2022-10-16T04:25:19;76.70;;;23.17;;
65387;SDS011;51992;53.528;49.474;2022-10-16T04:27:52;74.55;;;27.40;;
65387;SDS011;51992;53.528;49.474;2022-10-16T04:30:23;108.60;;;35.17;;
65387;SDS011;51992;53.528;49.474;2022-10-16T04:32:54;125.90;;;39.70;;
65387;SDS011;51992;53.528;49.474;2022-10-16T04:35:25;72.22;;;25.23;;
65387;SDS011;51992;53.528;49.474;2022-10-16T04:37:57;76.40;;;25.58;;
65387;SDS011;51992;53.528;49.474;2022-10-16T04:40:28;74.55;;;26.10;;
65387;SDS011;51992;53.528;49.474;2022-10-16T04:42:59;77.45;;;27.27;;
65387;SDS011;51992;53.528;49.474;2022-10-16T04:45:30;93.50;;;33.20;;
65387;SDS011;51992;53.528;49.474;2022-10-16T04:48:01;108.07;;;35.72;;
65387;SDS011;51992;53.528;49.474;2022-10-16T04:50:32;85.28;;;33.47;;
65387;SDS011;51992;53.528;49.474;2022-10-16T04:53:04;51.78;;;20.67;;
65387;SDS011;51992;53.528;49.474;2022-10-16T04:55:35;35.10;;;14.02;;
65387;SDS011;51992;53.528;49.474;2022-10-16T04:58:06;36.78;;;10.43;;
65387;SDS011;51992;53.528;49.474;2022-10-16T05:00:38;33.47;;;11.43;;
65387;SDS011;51992;53.528;49.474;2022-10-16T05:03:09;30.58;;;8.63;;
65387;SDS011;51992;53.528;49.474;2022-10-16T05:05:43;32.50;;;8.35;;
65387;SDS011;51992;53.528;49.474;2022-10-16T05:08:15;41.15;;;13.80;;
65387;SDS011;51992;53.528;49.474;2022-10-16T05:10:46;39.38;;;11.88;;
65387;SDS011;51992;53.528;49.474;2022-10-16T05:13:17;67.93;;;13.82;;
65387;SDS011;51992;53.528;49.474;2022-10-16T05:15:49;22.35;;;7.30;;
65387;SDS011;51992;53.528;49.474;2022-10-16T05:18:20;36.75;;;11.60;;
65387;SDS011;51992;53.528;49.474;2022-10-16T05:20:51;58.50;;;13.88;;
65387;SDS011;51992;53.528;49.474;2022-10-16T05:23:22;60.97;;;14.52;;
65387;SDS011;51992;53.528;49.474;2022-10-16T05:25:54;36.85;;;10.93;;
65387;SDS011;51992;53.528;49.474;2022-10-16T05:28:26;41.28;;;9.77;;
65387;SDS011;51992;53.528;49.474;2022-10-16T05:30:57;41.72;;;10.68;;
65387;SDS011;51992;53.528;49.474;2022-10-16T05:33:29;46.13;;;9.93;;
65387;SDS011;51992;53.528;49.474;2022-10-16T05:36:02;17.02;;;7.05;;
65387;SDS011;51992;53.528;49.474;2022-10-16T05:38:34;16.40;;;7.03;;
65387;SDS011;51992;53.528;49.474;2022-10-16T05:41:05;12.90;;;5.70;;
65387;SDS011;51992;53.528;49.474;2022-10-16T05:43:36;16.88;;;7.47;;
65387;SDS011;51992;53.528;49.474;2022-10-16T05:46:07;23.25;;;8.80;;
65387;SDS011;51992;53.528;49.474;2022-10-16T05:48:38;23.83;;;8.45;;
65387;SDS011;51992;53.528;49.474;2022-10-16T05:51:10;18.73;;;8.13;;
65387;SDS011;51992;53.528;49.474;2022-10-16T05:53:41;16.88;;;7.82;;
65387;SDS011;51992;53.528;49.474;2022-10-16T05:56:12;8.90;;;4.80;;
65387;SDS011;51992;53.528;49.474;2022-10-16T05:58:44;10.45;;;4.88;;
65387;SDS011;51992;53.528;49.474;2022-10-16T06:01:17;7.78;;;4.75;;
65387;SDS011;51992;53.528;49.474;2022-10-16T06:03:48;12.23;;;6.70;;
65387;SDS011;51992;53.528;49.474;2022-10-16T06:06:21;14.90;;;6.00;;
65387;SDS011;51992;53.528;49.474;2022-10-16T06:08:52;10.52;;;4.97;;
65387;SDS011;51992;53.528;49.474;2022-10-16T06:13:55;15.05;;;5.32;;
65387;SDS011;51992;53.528;49.474;2022-10-16T06:16:30;22.95;;;5.85;;
65387;SDS011;51992;53.528;49.474;2022-10-16T06:19:02;10.68;;;4.80;;
65387;SDS011;51992;53.528;49.474;2022-10-16T06:21:35;8.75;;;5.50;;
65387;SDS011;51992;53.528;49.474;2022-10-16T06:24:06;7.55;;;5.35;;
65387;SDS011;51992;53.528;49.474;2022-10-16T06:26:37;8.95;;;5.80;;
65387;SDS011;51992;53.528;49.474;2022-10-16T06:31:39;14.75;;;7.93;;
65387;SDS011;51992;53.528;49.474;2022-10-16T06:34:10;13.25;;;8.30;;
65387;SDS011;51992;53.528;49.474;2022-10-16T06:36:42;13.05;;;7.15;;
65387;SDS011;51992;53.528;49.474;2022-10-16T06:39:14;16.38;;;7.30;;
65387;SDS011;51992;53.528;49.474;2022-10-16T06:41:45;10.73;;;7.07;;
65387;SDS011;51992;53.528;49.474;2022-10-16T06:46:47;13.88;;;8.07;;
65387;SDS011;51992;53.528;49.474;2022-10-16T06:49:18;16.35;;;8.85;;
65387;SDS011;51992;53.528;49.474;2022-10-16T06:51:53;12.15;;;8.70;;
65387;SDS011;51992;53.528;49.474;2022-10-16T06:54:24;15.65;;;8.25;;
65387;SDS011;51992;53.528;49.474;2022-10-16T06:56:55;10.50;;;7.15;;
65387;SDS011;51992;53.528;49.474;2022-10-16T06:59:26;9.10;;;7.45;;
65387;SDS011;51992;53.528;49.474;2022-10-16T07:01:57;12.45;;;6.75;;
65387;SDS011;51992;53.528;49.474;2022-10-16T07:04:28;12.70;;;6.18;;
65387;SDS011;51992;53.528;49.474;2022-10-16T07:07:00;11.15;;;5.93;;
65387;SDS011;51992;53.528;49.474;2022-10-16T07:09:31;11.88;;;5.47;;
65387;SDS011;51992;53.528;49.474;2022-10-16T07:12:02;11.02;;;5.57;;
65387;SDS011;51992;53.528;49.474;2022-10-16T07:14:33;8.90;;;5.28;;
65387;SDS011;51992;53.528;49.474;2022-10-16T07:17:04;6.47;;;5.20;;
65387;SDS011;51992;53.528;49.474;2022-10-16T07:19:35;12.73;;;5.63;;
65387;SDS011;51992;53.528;49.474;2022-10-16T07:22:06;13.38;;;6.00;;
65387;SDS011;51992;53.528;49.474;2022-10-16T07:24:37;8.35;;;5.10;;
65387;SDS011;51992;53.528;49.474;2022-10-16T07:27:08;8.85;;;5.32;;
65387;SDS011;51992;53.528;49.474;2022-10-16T07:29:39;9.07;;;5.07;;
65387;SDS011;51992;53.528;49.474;2022-10-16T07:32:11;11.43;;;4.45;;
65387;SDS011;51992;53.528;49.474;2022-10-16T07:34:42;10.05;;;4.03;;
65387;SDS011;51992;53.528;49.474;2022-10-16T07:37:13;10.40;;;4.47;;
65387;SDS011;51992;53.528;49.474;2022-10-16T07:39:44;11.90;;;3.72;;
65387;SDS011;51992;53.528;49.474;2022-10-16T07:42:15;3.97;;;3.20;;
65387;SDS011;51992;53.528;49.474;2022-10-16T07:44:46;5.90;;;2.97;;
65387;SDS011;51992;53.528;49.474;2022-10-16T07:47:17;6.07;;;3.90;;
65387;SDS011;51992;53.528;49.474;2022-10-16T07:49:48;13.98;;;3.67;;
65387;SDS011;51992;53.528;49.474;2022-10-16T07:52:19;5.65;;;3.10;;
65387;SDS011;51992;53.528;49.474;2022-10-16T07:54:54;16.67;;;3.72;;
65387;SDS011;51992;53.528;49.474;2022-10-16T07:57:25;22.42;;;3.63;;
65387;SDS011;51992;53.528;49.474;2022-10-16T07:59:56;5.47;;;2.38;;
65387;SDS011;51992;53.528;49.474;2022-10-16T08:02:27;8.40;;;3.00;;
65387;SDS011;51992;53.528;49.474;2022-10-16T08:04:58;9.27;;;3.15;;
65387;SDS011;51992;53.528;49.474;2022-10-16T08:07:29;6.88;;;3.33;;
65387;SDS011;51992;53.528;49.474;2022-10-16T08:10:00;3.50;;;2.80;;
65387;SDS011;51992;53.528;49.474;2022-10-16T08:12:31;5.47;;;2.60;;
65387;SDS011;51992;53.528;49.474;2022-10-16T08:15:02;6.40;;;2.67;;
65387;SDS011;51992;53.528;49.474;2022-10-16T08:17:33;6.03;;;3.05;;
65387;SDS011;51992;53.528;49.474;2022-10-16T08:20:05;4.00;;;2.40;;
65387;SDS011;51992;53.528;49.474;2022-10-16T08:22:36;8.73;;;3.38;;
65387;SDS011;51992;53.528;49.474;2022-10-16T08:25:07;5.38;;;2.58;;
65387;SDS011;51992;53.528;49.474;2022-10-16T08:27:38;11.38;;;2.70;;
65387;SDS011;51992;53.528;49.474;2022-10-16T08:30:10;4.53;;;2.42;;
65387;SDS011;51992;53.528;49.474;2022-10-16T08:35:12;3.33;;;2.50;;
65387;SDS011;51992;53.528;49.474;2022-10-16T08:37:44;5.07;;;2.45;;
65387;SDS011;51992;53.528;49.474;2022-10-16T08:40:20;6.13;;;2.40;;
65387;SDS011;51992;53.528;49.474;2022-10-16T08:43:07;4.05;;;2.30;;
65387;SDS011;51992;53.528;49.474;2022-10-16T08:45:43;9.00;;;3.22;;
65387;SDS011;51992;53.528;49.474;2022-10-16T08:48:52;3.90;;;2.42;;
65387;SDS011;51992;53.528;49.474;2022-10-16T08:56:42;15.07;;;4.30;;
65387;SDS011;51992;53.528;49.474;2022-10-16T08:59:13;3.03;;;2.50;;
65387;SDS011;51992;53.528;49.474;2022-10-16T09:01:47;8.43;;;2.70;;
65387;SDS011;51992;53.528;49.474;2022-10-16T09:04:32;5.68;;;2.60;;
65387;SDS011;51992;53.528;49.474;2022-10-16T09:07:32;6.93;;;2.58;;
65387;SDS011;51992;53.528;49.474;2022-10-16T09:12:37;17.98;;;3.25;;
65387;SDS011;51992;53.528;49.474;2022-10-16T09:20:49;5.93;;;2.58;;
65387;SDS011;51992;53.528;49.474;2022-10-16T09:23:28;7.95;;;2.58;;
65387;SDS011;51992;53.528;49.474;2022-10-16T09:26:00;14.23;;;2.95;;
65387;SDS011;51992;53.528;49.474;2022-10-16T09:28:32;2.92;;;2.22;;
65387;SDS011;51992;53.528;49.474;2022-10-16T09:31:03;5.55;;;2.28;;
65387;SDS011;51992;53.528;49.474;2022-10-16T09:33:36;4.53;;;2.83;;
65387;SDS011;51992;53.528;49.474;2022-10-16T09:36:08;2.85;;;1.75;;
65387;SDS011;51992;53.528;49.474;2022-10-16T09:38:40;5.38;;;2.00;;
65387;SDS011;51992;53.528;49.474;2022-10-16T09:41:21;5.38;;;2.50;;
65387;SDS011;51992;53.528;49.474;2022-10-16T09:43:59;3.67;;;2.55;;
65387;SDS011;51992;53.528;49.474;2022-10-16T09:46:31;7.53;;;2.67;;
65387;SDS011;51992;53.528;49.474;2022-10-16T09:49:04;13.32;;;3.15;;
65387;SDS011;51992;53.528;49.474;2022-10-16T09:51:36;5.88;;;2.60;;
65387;SDS011;51992;53.528;49.474;2022-10-16T09:56:39;4.07;;;2.50;;
65387;SDS011;51992;53.528;49.474;2022-10-16T09:59:15;7.90;;;3.45;;
65387;SDS011;51992;53.528;49.474;2022-10-16T10:01:47;3.45;;;2.25;;
65387;SDS011;51992;53.528;49.474;2022-10-16T10:04:19;5.70;;;2.17;;
65387;SDS011;51992;53.528;49.474;2022-10-16T10:06:52;5.30;;;2.20;;
65387;SDS011;51992;53.528;49.474;2022-10-16T10:09:37;5.40;;;2.45;;
65387;SDS011;51992;53.528;49.474;2022-10-16T10:14:50;3.58;;;1.92;;
65387;SDS011;51992;53.528;49.474;2022-10-16T10:17:22;4.35;;;2.72;;
65387;SDS011;51992;53.528;49.474;2022-10-16T10:19:54;6.78;;;2.75;;
65387;SDS011;51992;53.528;49.474;2022-10-16T10:30:23;8.45;;;3.10;;
65387;SDS011;51992;53.528;49.474;2022-10-16T10:38:20;4.32;;;2.97;;
65387;SDS011;51992;53.528;49.474;2022-10-16T10:46:09;5.47;;;2.58;;
65387;SDS011;51992;53.528;49.474;2022-10-16T10:51:40;8.27;;;3.08;;
65387;SDS011;51992;53.528;49.474;2022-10-16T10:55:02;6.63;;;3.00;;
65387;SDS011;51992;53.528;49.474;2022-10-16T11:00:10;7.82;;;3.65;;
65387;SDS011;51992;53.528;49.474;2022-10-16T11:03:29;10.03;;;5.23;;
65387;SDS011;51992;53.528;49.474;2022-10-16T11:08:16;7.57;;;3.05;;
65387;SDS011;51992;53.528;49.474;2022-10-16T11:10:58;14.05;;;3.28;;
65387;SDS011;51992;53.528;49.474;2022-10-16T11:21:16;17.15;;;5.70;;
65387;SDS011;51992;53.528;49.474;2022-10-16T11:23:52;8.23;;;3.92;;
65387;SDS011;51992;53.528;49.474;2022-10-16T11:26:26;19.38;;;8.32;;
65387;SDS011;51992;53.528;49.474;2022-10-16T11:28:58;13.88;;;6.88;;
65387;SDS011;51992;53.528;49.474;2022-10-16T11:31:45;20.40;;;9.80;;
65387;SDS011;51992;53.528;49.474;2022-10-16T11:39:27;9.05;;;3.97;;
65387;SDS011;51992;53.528;49.474;2022-10-16T11:55:44;8.77;;;3.83;;
65387;SDS011;51992;53.528;49.474;2022-10-16T11:58:37;13.30;;;4.82;;
65387;SDS011;51992;53.528;49.474;2022-10-16T12:03:59;3.65;;;2.65;;
65387;SDS011;51992;53.528;49.474;2022-10-16T12:06:47;4.47;;;2.33;;
65387;SDS011;51992;53.528;49.474;2022-10-16T12:09:26;6.85;;;3.08;;
65387;SDS011;51992;53.528;49.474;2022-10-16T12:11:57;17.20;;;8.30;;
65387;SDS011;51992;53.528;49.474;2022-10-16T12:17:04;9.75;;;5.25;;
65387;SDS011;51992;53.528;49.474;2022-10-16T12:20:35;14.68;;;8.30;;
65387;SDS011;51992;53.528;49.474;2022-10-16T12:22:54;16.80;;;8.00;;
65387;SDS011;51992;53.528;49.474;2022-10-16T12:25:27;16.38;;;8.23;;
65387;SDS011;51992;53.528;49.474;2022-10-16T12:28:00;19.85;;;7.30;;
65387;SDS011;51992;53.528;49.474;2022-10-16T12:30:33;11.27;;;4.95;;
65387;SDS011;51992;53.528;49.474;2022-10-16T12:33:05;6.25;;;3.30;;
65387;SDS011;51992;53.528;49.474;2022-10-16T12:35:42;15.32;;;6.68;;
65387;SDS011;51992;53.528;49.474;2022-10-16T12:41:27;16.35;;;6.03;;
65387;SDS011;51992;53.528;49.474;2022-10-16T12:43:58;24.73;;;10.93;;
65387;SDS011;51992;53.528;49.474;2022-10-16T12:46:36;19.52;;;9.20;;
65387;SDS011;51992;53.528;49.474;2022-10-16T12:51:46;18.98;;;7.90;;
65387;SDS011;51992;53.528;49.474;2022-10-16T12:54:18;16.55;;;8.40;;
65387;SDS011;51992;53.528;49.474;2022-10-16T13:12:31;13.60;;;6.53;;
65387;SDS011;51992;53.528;49.474;2022-10-16T13:15:11;20.40;;;8.07;;
65387;SDS011;51992;53.528;49.474;2022-10-16T13:20:35;20.83;;;11.02;;
65387;SDS011;51992;53.528;49.474;2022-10-16T13:23:13;24.00;;;11.57;;
65387;SDS011;51992;53.528;49.474;2022-10-16T13:25:49;24.98;;;11.23;;
65387;SDS011;51992;53.528;49.474;2022-10-16T13:28:27;14.40;;;7.60;;
65387;SDS011;51992;53.528;49.474;2022-10-16T13:31:00;15.80;;;7.85;;
65387;SDS011;51992;53.528;49.474;2022-10-16T13:33:33;16.75;;;6.95;;
65387;SDS011;51992;53.528;49.474;2022-10-16T13:36:05;15.93;;;7.45;;
65387;SDS011;51992;53.528;49.474;2022-10-16T13:41:14;19.38;;;9.13;;
65387;SDS011;51992;53.528;49.474;2022-10-16T13:43:47;18.08;;;8.43;;
65387;SDS011;51992;53.528;49.474;2022-10-16T13:46:20;19.85;;;9.57;;
65387;SDS011;51992;53.528;49.474;2022-10-16T13:49:02;21.67;;;9.45;;
65387;SDS011;51992;53.528;49.474;2022-10-16T13:51:33;28.67;;;10.07;;
65387;SDS011;51992;53.528;49.474;2022-10-16T13:54:04;24.17;;;10.25;;
65387;SDS011;51992;53.528;49.474;2022-10-16T13:56:35;23.05;;;9.52;;
65387;SDS011;51992;53.528;49.474;2022-10-16T13:59:22;23.40;;;8.60;;
65387;SDS011;51992;53.528;49.474;2022-10-16T14:01:53;31.13;;;8.82;;
65387;SDS011;51992;53.528;49.474;2022-10-16T14:04:27;23.45;;;8.65;;
65387;SDS011;51992;53.528;49.474;2022-10-16T14:07:00;37.45;;;8.55;;
65387;SDS011;51992;53.528;49.474;2022-10-16T14:09:31;47.38;;;9.98;;
65387;SDS011;51992;53.528;49.474;2022-10-16T14:12:03;27.00;;;7.32;;
65387;SDS011;51992;53.528;49.474;2022-10-16T14:14:48;34.35;;;8.13;;
65387;SDS011;51992;53.528;49.474;2022-10-16T14:17:24;35.10;;;8.20;;
65387;SDS011;51992;53.528;49.474;2022-10-16T14:19:57;24.83;;;7.15;;
65387;SDS011;51992;53.528;49.474;2022-10-16T14:22:33;18.42;;;7.25;;
65387;SDS011;51992;53.528;49.474;2022-10-16T14:28:04;19.08;;;7.15;;
65387;SDS011;51992;53.528;49.474;2022-10-16T14:30:36;18.40;;;8.95;;
65387;SDS011;51992;53.528;49.474;2022-10-16T14:33:20;21.92;;;9.73;;
65387;SDS011;51992;53.528;49.474;2022-10-16T14:38:31;27.52;;;17.60;;
65387;SDS011;51992;53.528;49.474;2022-10-16T14:41:03;41.95;;;23.23;;
65387;SDS011;51992;53.528;49.474;2022-10-16T14:46:11;64.80;;;26.45;;
65387;SDS011;51992;53.528;49.474;2022-10-16T14:48:43;64.18;;;28.90;;
65387;SDS011;51992;53.528;49.474;2022-10-16T14:51:16;69.75;;;29.48;;
65387;SDS011;51992;53.528;49.474;2022-10-16T14:53:49;76.15;;;30.33;;
65387;SDS011;51992;53.528;49.474;2022-10-16T14:56:21;69.88;;;28.50;;
65387;SDS011;51992;53.528;49.474;2022-10-16T14:58:53;69.57;;;28.15;;
65387;SDS011;51992;53.528;49.474;2022-10-16T15:01:24;71.68;;;29.38;;
65387;SDS011;51992;53.528;49.474;2022-10-16T15:03:55;71.75;;;31.40;;
65387;SDS011;51992;53.528;49.474;2022-10-16T15:06:26;64.07;;;28.23;;
65387;SDS011;51992;53.528;49.474;2022-10-16T15:08:57;54.45;;;25.65;;
65387;SDS011;51992;53.528;49.474;2022-10-16T15:11:28;56.88;;;23.80;;
65387;SDS011;51992;53.528;49.474;2022-10-16T15:16:30;57.20;;;23.95;;
65387;SDS011;51992;53.528;49.474;2022-10-16T15:19:02;48.75;;;21.73;;
65387;SDS011;51992;53.528;49.474;2022-10-16T15:21:33;44.42;;;17.02;;
65387;SDS011;51992;53.528;49.474;2022-10-16T15:24:05;29.98;;;15.57;;
65387;SDS011;51992;53.528;49.474;2022-10-16T15:26:39;43.40;;;17.27;;
65387;SDS011;51992;53.528;49.474;2022-10-16T15:29:10;31.42;;;13.45;;
65387;SDS011;51992;53.528;49.474;2022-10-16T15:31:41;36.53;;;15.13;;
65387;SDS011;51992;53.528;49.474;2022-10-16T15:34:17;34.08;;;14.73;;
65387;SDS011;51992;53.528;49.474;2022-10-16T15:36:50;29.05;;;12.88;;
65387;SDS011;51992;53.528;49.474;2022-10-16T15:39:21;26.00;;;12.05;;
65387;SDS011;51992;53.528;49.474;2022-10-16T15:41:52;20.33;;;11.13;;
65387;SDS011;51992;53.528;49.474;2022-10-16T15:46:56;18.90;;;10.73;;
65387;SDS011;51992;53.528;49.474;2022-10-16T15:49:27;24.90;;;10.02;;
65387;SDS011;51992;53.528;49.474;2022-10-16T15:51:58;21.65;;;10.73;;
65387;SDS011;51992;53.528;49.474;2022-10-16T15:54:30;18.52;;;9.95;;
65387;SDS011;51992;53.528;49.474;2022-10-16T15:57:01;22.58;;;9.80;;
65387;SDS011;51992;53.528;49.474;2022-10-16T15:59:32;23.63;;;10.35;;
65387;SDS011;51992;53.528;49.474;2022-10-16T16:02:03;20.90;;;9.73;;
65387;SDS011;51992;53.528;49.474;2022-10-16T16:04:34;14.40;;;8.82;;
65387;SDS011;51992;53.528;49.474;2022-10-16T16:07:05;14.95;;;8.02;;
65387;SDS011;51992;53.528;49.474;2022-10-16T16:09:38;21.63;;;8.65;;
65387;SDS011;51992;53.528;49.474;2022-10-16T16:12:09;18.85;;;8.35;;
65387;SDS011;51992;53.528;49.474;2022-10-16T16:14:40;20.48;;;8.43;;
65387;SDS011;51992;53.528;49.474;2022-10-16T16:17:11;17.70;;;8.25;;
65387;SDS011;51992;53.528;49.474;2022-10-16T16:19:42;17.08;;;8.43;;
65387;SDS011;51992;53.528;49.474;2022-10-16T16:22:13;30.13;;;8.75;;
65387;SDS011;51992;53.528;49.474;2022-10-16T16:24:44;28.30;;;8.52;;
65387;SDS011;51992;53.528;49.474;2022-10-16T16:27:15;28.48;;;8.65;;
65387;SDS011;51992;53.528;49.474;2022-10-16T16:29:47;20.48;;;7.70;;
65387;SDS011;51992;53.528;49.474;2022-10-16T16:32:18;16.50;;;8.23;;
65387;SDS011;51992;53.528;49.474;2022-10-16T16:34:50;32.20;;;8.57;;
65387;SDS011;51992;53.528;49.474;2022-10-16T16:37:21;21.35;;;8.07;;
65387;SDS011;51992;53.528;49.474;2022-10-16T16:39:52;26.50;;;8.68;;
65387;SDS011;51992;53.528;49.474;2022-10-16T16:42:25;34.63;;;8.20;;
65387;SDS011;51992;53.528;49.474;2022-10-16T16:44:57;25.00;;;8.05;;
65387;SDS011;51992;53.528;49.474;2022-10-16T16:47:28;20.88;;;7.85;;
65387;SDS011;51992;53.528;49.474;2022-10-16T16:49:59;16.83;;;7.63;;
65387;SDS011;51992;53.528;49.474;2022-10-16T16:52:30;17.85;;;7.97;;
65387;SDS011;51992;53.528;49.474;2022-10-16T16:55:01;20.17;;;8.70;;
65387;SDS011;51992;53.528;49.474;2022-10-16T16:57:32;22.65;;;8.32;;
65387;SDS011;51992;53.528;49.474;2022-10-16T17:00:03;14.30;;;8.15;;
65387;SDS011;51992;53.528;49.474;2022-10-16T17:02:35;22.33;;;10.52;;
65387;SDS011;51992;53.528;49.474;2022-10-16T17:05:06;23.67;;;9.32;;
65387;SDS011;51992;53.528;49.474;2022-10-16T17:07:38;22.25;;;10.60;;
65387;SDS011;51992;53.528;49.474;2022-10-16T17:10:11;15.75;;;9.50;;
65387;SDS011;51992;53.528;49.474;2022-10-16T17:12:42;13.25;;;8.18;;
65387;SDS011;51992;53.528;49.474;2022-10-16T17:15:13;17.58;;;8.40;;
65387;SDS011;51992;53.528;49.474;2022-10-16T17:17:44;19.42;;;8.70;;
65387;SDS011;51992;53.528;49.474;2022-10-16T17:20:15;14.38;;;7.88;;
65387;SDS011;51992;53.528;49.474;2022-10-16T17:22:46;18.23;;;8.63;;